Time;durP1;ratioP1;P1;durP2;ratioP2;P2;SDS_P1;SDS_P2;PMS_P1;PMS_P2;Temp;Humidity;BMP_temperature;BMP_pressure;BME280_temperature;BME280_humidity;BME280_pressure;Samples;Min_cycle;Max_cycle;Signal;HPM_P1;HPM_P2
2023/01/01 00:01:13;;;;;;;17.57;15.87;;;15.10;73.20;;;;;;5049466;28;20298;-89
2023/01/01 00:03:39;;;;;;;16.07;14.57;;;15.10;73.50;;;;;;5045572;28;20276;-89
2023/01/01 00:06:10;;;;;;;15.27;13.87;;;15.00;73.80;;;;;;5062418;28;20184;-90
2023/01/01 00:08:37;;;;;;;12.47;11.27;;;14.90;74.00;;;;;;5045675;28;20198;-88
2023/01/01 00:11:04;;;;;;;12.27;11.13;;;15.00;73.50;;;;;;5052854;28;20206;-90
2023/01/01 00:13:30;;;;;;;13.33;12.17;;;15.10;72.60;;;;;;5057947;28;20276;-89
2023/01/01 00:16:03;;;;;;;14.73;13.37;;;15.30;71.90;;;;;;5044047;28;20192;-90
2023/01/01 00:18:28;;;;;;;14.77;13.50;;;15.20;72.40;;;;;;5048699;28;20204;-91
2023/01/01 00:21:05;;;;;;;14.30;13.10;;;15.20;72.40;;;;;;5050871;28;20288;-90
2023/01/01 00:23:30;;;;;;;14.67;13.23;;;15.20;72.80;;;;;;5051187;28;20538;-89
2023/01/01 00:25:56;;;;;;;15.80;14.30;;;15.00;73.40;;;;;;5055793;28;20192;-90
2023/01/01 00:28:22;;;;;;;13.60;12.40;;;14.90;73.80;;;;;;5043776;28;20188;-89
2023/01/01 00:30:49;;;;;;;13.73;12.53;;;14.90;73.80;;;;;;5046598;28;20207;-90
2023/01/01 00:33:15;;;;;;;14.30;12.90;;;14.80;74.40;;;;;;5055517;28;20195;-90
2023/01/01 00:35:40;;;;;;;13.87;12.57;;;14.70;75.30;;;;;;5058073;28;20188;-90
2023/01/01 00:38:06;;;;;;;13.93;12.63;;;14.80;75.00;;;;;;5051414;28;20212;-89
2023/01/01 00:40:32;;;;;;;13.60;12.20;;;14.70;75.10;;;;;;5061691;28;20201;-89
2023/01/01 00:42:58;;;;;;;13.67;11.90;;;14.70;75.30;;;;;;5058354;28;20525;-90
2023/01/01 00:45:23;;;;;;;12.70;11.50;;;14.80;75.00;;;;;;5060433;28;20210;-89
2023/01/01 00:47:51;;;;;;;12.10;11.00;;;14.70;75.00;;;;;;5047405;28;20213;-90
2023/01/01 00:50:17;;;;;;;12.20;11.13;;;14.70;75.10;;;;;;5047718;28;20208;-88
2023/01/01 00:52:43;;;;;;;12.23;11.13;;;14.50;76.00;;;;;;5050124;28;20246;-89
2023/01/01 00:55:09;;;;;;;11.10;10.10;;;14.50;76.50;;;;;;5045965;28;20204;-90
2023/01/01 00:57:34;;;;;;;10.57;9.50;;;14.50;76.60;;;;;;5037975;28;20244;-90
2023/01/01 01:00:00;;;;;;;9.70;8.80;;;14.50;76.30;;;;;;5046909;28;20216;-90
2023/01/01 01:02:26;;;;;;;9.83;8.87;;;14.50;76.00;;;;;;5051996;28;20254;-88
2023/01/01 01:04:52;;;;;;;10.10;9.20;;;14.60;75.60;;;;;;5052690;28;20220;-89
2023/01/01 01:07:17;;;;;;;10.37;9.37;;;14.60;75.40;;;;;;5048988;28;20204;-85
2023/01/01 01:09:43;;;;;;;9.63;8.77;;;14.50;75.80;;;;;;5055376;28;20197;-89
2023/01/01 01:12:09;;;;;;;10.63;9.60;;;14.50;75.90;;;;;;5055261;28;20226;-90
2023/01/01 01:14:34;;;;;;;9.60;8.57;;;14.50;76.00;;;;;;5057874;28;20248;-88
2023/01/01 01:17:00;;;;;;;9.73;8.83;;;14.40;75.80;;;;;;5048151;28;20278;-90
2023/01/01 01:19:26;;;;;;;10.03;8.97;;;14.40;76.00;;;;;;5057429;28;20239;-90
2023/01/01 01:21:52;;;;;;;10.30;9.30;;;14.30;76.80;;;;;;5049678;28;20265;-89
2023/01/01 01:24:17;;;;;;;10.40;9.30;;;14.30;77.10;;;;;;5051717;28;20190;-88
2023/01/01 01:26:43;;;;;;;11.53;10.40;;;14.20;77.30;;;;;;5052471;28;20188;-88
2023/01/01 01:29:09;;;;;;;11.90;10.87;;;14.10;78.80;;;;;;5050429;28;20686;-89
2023/01/01 01:31:35;;;;;;;11.70;10.50;;;13.80;80.10;;;;;;5058205;28;20204;-90
2023/01/01 01:34:00;;;;;;;10.77;9.67;;;13.70;80.90;;;;;;5050175;28;20188;-89
2023/01/01 01:36:27;;;;;;;11.40;10.30;;;13.70;81.70;;;;;;5057536;28;20252;-89
2023/01/01 01:38:54;;;;;;;10.80;9.83;;;13.70;81.30;;;;;;5061769;28;20243;-90
2023/01/01 01:41:22;;;;;;;10.40;8.90;;;13.70;81.60;;;;;;5062929;28;20659;-90
2023/01/01 01:43:54;;;;;;;10.27;9.20;;;13.80;80.70;;;;;;5061647;28;20190;-92
2023/01/01 01:46:40;;;;;;;10.40;9.40;;;13.90;81.30;;;;;;5062407;28;20272;-89
2023/01/01 01:49:35;;;;;;;9.57;8.53;;;13.90;80.10;;;;;;5071382;28;20179;-87
2023/01/01 01:52:01;;;;;;;8.97;8.10;;;13.80;80.10;;;;;;5039755;28;20245;-89
2023/01/01 01:54:27;;;;;;;9.73;8.80;;;13.70;81.20;;;;;;5060730;28;20202;-89
2023/01/01 01:56:58;;;;;;;9.47;8.57;;;13.60;82.30;;;;;;5052415;28;20211;-89
2023/01/01 01:59:28;;;;;;;10.07;9.07;;;13.50;83.00;;;;;;5049009;28;20275;-89
2023/01/01 02:01:53;;;;;;;9.20;8.30;;;13.50;83.00;;;;;;5052568;28;20472;-89
2023/01/01 02:04:19;;;;;;;8.37;7.57;;;13.40;83.40;;;;;;5057186;28;20204;-89
2023/01/01 02:06:46;;;;;;;7.43;6.73;;;13.40;83.40;;;;;;5038073;28;20209;-89
2023/01/01 02:09:12;;;;;;;7.67;6.97;;;13.30;83.60;;;;;;5058091;28;20254;-89
2023/01/01 02:11:38;;;;;;;6.57;5.97;;;13.50;82.70;;;;;;5050046;28;20219;-90
2023/01/01 02:14:05;;;;;;;6.97;6.33;;;13.50;82.80;;;;;;5050544;28;20182;-89
2023/01/01 02:16:48;;;;;;;6.50;5.90;;;13.50;82.90;;;;;;5050151;28;20195;-89
2023/01/01 02:19:34;;;;;;;5.50;5.00;;;13.60;82.30;;;;;;5046157;28;20225;-90
2023/01/01 02:22:09;;;;;;;5.30;4.80;;;13.80;80.60;;;;;;5058392;28;20196;-90
2023/01/01 02:25:22;;;;;;;6.40;5.10;;;14.20;78.50;;;;;;5060937;28;20242;-89
2023/01/01 02:27:54;;;;;;;5.17;4.67;;;14.30;77.60;;;;;;5059932;28;20189;-89
2023/01/01 02:30:20;;;;;;;6.87;5.03;;;14.30;77.30;;;;;;5060442;28;20274;-89
2023/01/01 02:32:54;;;;;;;4.93;4.53;;;14.50;75.90;;;;;;5049834;28;20285;-90
2023/01/01 02:35:37;;;;;;;5.33;4.83;;;14.50;75.70;;;;;;5055484;28;20272;-91
2023/01/01 02:38:23;;;;;;;6.83;5.17;;;14.50;75.50;;;;;;5048176;28;20238;-89
2023/01/01 02:40:54;;;;;;;5.90;5.20;;;14.70;74.70;;;;;;5052151;28;20239;-89
2023/01/01 02:43:20;;;;;;;5.70;5.20;;;14.60;74.80;;;;;;5047040;28;20184;-89
2023/01/01 02:45:46;;;;;;;5.57;5.10;;;14.60;75.10;;;;;;5047387;28;20556;-90
2023/01/01 02:48:36;;;;;;;5.80;5.30;;;14.60;74.60;;;;;;5060763;28;20600;-90
2023/01/01 02:51:42;;;;;;;6.57;5.47;;;14.70;74.20;;;;;;5056785;28;20222;-90
2023/01/01 02:54:16;;;;;;;5.90;5.33;;;14.60;74.40;;;;;;5019139;28;20203;-89
2023/01/01 02:57:05;;;;;;;5.43;4.47;;;14.60;74.20;;;;;;5046361;28;20241;-89
2023/01/01 03:03:22;;;;;;;5.10;4.70;;;14.60;73.50;;;;;;5053089;28;20211;-89
2023/01/01 03:06:22;;;;;;;5.80;4.70;;;14.60;73.20;;;;;;5050779;28;20196;-89
2023/01/01 03:09:17;;;;;;;6.77;4.37;;;14.60;72.90;;;;;;5047459;28;20159;-88
2023/01/01 03:12:01;;;;;;;5.87;5.27;;;14.70;72.20;;;;;;5070611;28;20211;-90
2023/01/01 03:14:34;;;;;;;5.33;4.83;;;14.70;72.10;;;;;;5069767;28;20174;-91
2023/01/01 03:17:16;;;;;;;5.07;4.63;;;14.70;71.80;;;;;;5069945;28;20195;-91
2023/01/01 03:19:44;;;;;;;4.80;4.40;;;14.90;70.50;;;;;;5058040;28;20320;-89
2023/01/01 03:22:12;;;;;;;5.20;4.00;;;14.90;70.00;;;;;;5050352;28;20195;-90
2023/01/01 03:24:46;;;;;;;3.90;3.53;;;14.90;70.00;;;;;;5057388;28;20203;-90
2023/01/01 03:27:26;;;;;;;6.80;4.00;;;14.90;69.60;;;;;;5049560;28;20177;-89
2023/01/01 03:29:53;;;;;;;4.10;3.43;;;14.90;69.70;;;;;;5057735;28;20191;-90
2023/01/01 03:32:59;;;;;;;3.70;3.40;;;14.90;68.70;;;;;;5045932;28;20190;-89
2023/01/01 03:35:13;;;;;;;4.30;3.70;;;15.00;67.70;;;;;;5053570;28;20195;-90
2023/01/01 03:37:42;;;;;;;6.37;3.63;;;15.10;67.10;;;;;;5048321;28;20180;-90
2023/01/01 03:40:09;;;;;;;3.80;3.50;;;15.10;66.80;;;;;;5054686;28;20204;-90
2023/01/01 03:42:40;;;;;;;4.17;3.60;;;15.10;66.60;;;;;;5046679;28;20191;-90
2023/01/01 03:45:37;;;;;;;4.10;3.63;;;15.00;66.40;;;;;;5053659;28;20199;-89
2023/01/01 03:48:04;;;;;;;3.60;3.10;;;15.10;66.10;;;;;;5022529;28;20197;-87
2023/01/01 03:50:58;;;;;;;4.33;3.10;;;15.10;65.90;;;;;;5049484;28;20716;-90
2023/01/01 03:53:28;;;;;;;3.70;3.40;;;15.10;65.50;;;;;;5047774;28;20249;-88
2023/01/01 03:56:07;;;;;;;3.50;2.97;;;15.20;64.80;;;;;;5053816;28;20191;-89
2023/01/01 03:59:06;;;;;;;3.90;3.27;;;15.20;65.10;;;;;;5052149;28;20219;-90
2023/01/01 04:01:37;;;;;;;3.80;2.97;;;15.20;64.10;;;;;;5048760;28;20318;-90
2023/01/01 04:04:04;;;;;;;3.93;3.07;;;15.30;64.30;;;;;;5047828;28;20185;-90
2023/01/01 04:06:32;;;;;;;5.03;3.00;;;15.30;63.70;;;;;;5058720;28;20202;-91
2023/01/01 04:09:00;;;;;;;4.57;3.37;;;15.40;63.80;;;;;;5066945;28;20191;-91
2023/01/01 04:14:32;;;;;;;4.40;2.93;;;15.30;64.40;;;;;;5062537;28;20207;-87
2023/01/01 04:16:58;;;;;;;5.13;2.90;;;15.50;63.20;;;;;;5068335;28;20190;-87
2023/01/01 04:19:24;;;;;;;3.13;2.83;;;15.30;64.10;;;;;;5055247;28;20688;-89
2023/01/01 04:21:49;;;;;;;3.00;2.80;;;15.10;65.50;;;;;;5052167;28;20224;-89
2023/01/01 04:24:15;;;;;;;4.67;2.90;;;15.20;65.20;;;;;;5050142;28;20557;-90
2023/01/01 04:26:41;;;;;;;3.40;3.10;;;15.00;66.00;;;;;;5048283;28;20188;-90
2023/01/01 04:29:07;;;;;;;3.17;2.87;;;15.00;65.90;;;;;;5048517;28;20241;-89
2023/01/01 04:31:36;;;;;;;3.50;3.20;;;15.00;66.30;;;;;;5050773;28;20701;-90
2023/01/01 04:34:02;;;;;;;4.30;3.07;;;15.00;66.30;;;;;;5048138;28;20725;-90
2023/01/01 04:36:27;;;;;;;3.20;2.90;;;15.10;66.30;;;;;;5051885;28;20187;-89
2023/01/01 04:38:53;;;;;;;4.40;3.10;;;15.10;65.40;;;;;;5050716;28;20216;-90
2023/01/01 04:41:18;;;;;;;4.77;3.30;;;15.20;65.40;;;;;;5042300;28;20210;-90
2023/01/01 04:43:49;;;;;;;4.60;3.30;;;15.10;65.60;;;;;;5054338;28;20198;-90
2023/01/01 04:46:16;;;;;;;4.90;3.10;;;15.00;66.20;;;;;;5053968;28;20195;-89
2023/01/01 04:48:42;;;;;;;3.80;2.80;;;15.10;65.80;;;;;;5059699;28;20219;-89
2023/01/01 04:51:10;;;;;;;5.17;3.10;;;14.90;66.40;;;;;;5051093;28;20203;-89
2023/01/01 04:53:36;;;;;;;4.53;2.83;;;14.90;66.60;;;;;;5053476;28;20201;-90
2023/01/01 04:56:06;;;;;;;6.30;2.73;;;14.90;66.50;;;;;;5048239;28;20204;-89
2023/01/01 04:58:36;;;;;;;4.00;2.80;;;14.90;66.50;;;;;;5051382;28;20205;-90
2023/01/01 05:01:02;;;;;;;4.83;2.50;;;14.90;66.50;;;;;;5046518;28;20274;-90
2023/01/01 05:03:28;;;;;;;3.33;3.00;;;15.10;65.70;;;;;;5043038;28;20193;-89
2023/01/01 05:06:02;;;;;;;3.67;2.87;;;15.00;66.10;;;;;;5058109;28;20227;-90
2023/01/01 05:08:37;;;;;;;3.73;3.03;;;14.90;66.30;;;;;;5052346;28;20198;-89
2023/01/01 05:11:05;;;;;;;3.07;2.77;;;14.90;66.50;;;;;;5049133;28;20225;-89
2023/01/01 05:13:30;;;;;;;4.37;3.20;;;14.90;66.50;;;;;;5051012;28;20663;-91
2023/01/01 05:16:01;;;;;;;3.60;3.10;;;14.90;66.50;;;;;;5052010;28;20186;-89
2023/01/01 05:18:26;;;;;;;3.50;2.93;;;15.00;65.70;;;;;;5050180;28;20299;-89
2023/01/01 05:20:52;;;;;;;3.50;3.20;;;14.90;66.00;;;;;;5051256;28;20215;-90
2023/01/01 05:23:18;;;;;;;3.57;3.03;;;15.00;65.90;;;;;;5055433;28;20199;-89
2023/01/01 05:25:43;;;;;;;4.07;3.00;;;14.90;66.70;;;;;;5050468;28;20191;-89
2023/01/01 05:28:09;;;;;;;7.43;3.23;;;14.90;66.80;;;;;;5056096;28;20192;-90
2023/01/01 05:30:39;;;;;;;3.33;2.97;;;14.80;67.00;;;;;;5043804;28;20228;-89
2023/01/01 05:33:05;;;;;;;6.63;3.30;;;14.90;66.10;;;;;;5050891;28;20222;-90
2023/01/01 05:35:30;;;;;;;3.27;2.97;;;15.00;66.30;;;;;;5051686;28;20191;-90
2023/01/01 05:37:56;;;;;;;3.07;2.77;;;15.00;66.70;;;;;;5039722;28;20187;-91
2023/01/01 05:40:21;;;;;;;3.53;2.73;;;14.90;67.70;;;;;;5046155;28;20290;-90
2023/01/01 05:42:47;;;;;;;3.53;3.10;;;14.70;68.70;;;;;;5049998;28;20276;-91
2023/01/01 05:45:13;;;;;;;4.63;3.13;;;14.60;70.10;;;;;;5029418;28;20214;-90
2023/01/01 05:47:38;;;;;;;3.03;2.77;;;14.50;69.90;;;;;;5045891;28;20244;-89
2023/01/01 05:50:05;;;;;;;5.23;3.27;;;14.50;70.10;;;;;;5043959;28;20627;-88
2023/01/01 05:52:30;;;;;;;3.57;3.17;;;14.50;70.10;;;;;;5031696;28;20589;-89
2023/01/01 05:54:57;;;;;;;4.17;3.00;;;14.40;70.70;;;;;;5047968;28;20192;-90
2023/01/01 05:57:23;;;;;;;4.27;3.00;;;14.30;70.80;;;;;;5051817;28;20316;-90
2023/01/01 05:59:48;;;;;;;4.00;3.10;;;14.30;71.70;;;;;;5055021;28;20246;-90
2023/01/01 06:02:14;;;;;;;3.67;3.37;;;14.30;71.20;;;;;;5047548;28;20177;-90
2023/01/01 06:04:40;;;;;;;5.43;3.43;;;14.40;71.00;;;;;;5053924;28;20225;-88
2023/01/01 06:07:05;;;;;;;3.37;3.07;;;14.40;71.00;;;;;;5045170;28;20264;-89
2023/01/01 06:09:31;;;;;;;3.40;3.10;;;14.30;71.70;;;;;;5049390;28;20263;-90
2023/01/01 06:11:57;;;;;;;5.13;3.10;;;14.20;72.00;;;;;;5049296;28;20208;-90
2023/01/01 06:14:22;;;;;;;3.73;3.13;;;14.10;72.90;;;;;;5048532;28;20203;-88
2023/01/01 06:16:51;;;;;;;4.10;3.37;;;14.10;73.50;;;;;;5051789;28;20256;-89
2023/01/01 06:19:17;;;;;;;3.80;3.33;;;14.00;73.60;;;;;;5053244;28;20203;-89
2023/01/01 06:21:42;;;;;;;3.80;3.20;;;14.00;73.50;;;;;;5054521;28;20228;-89
2023/01/01 06:24:08;;;;;;;3.80;3.17;;;14.00;73.40;;;;;;5053475;28;20638;-91
2023/01/01 06:26:34;;;;;;;3.13;2.93;;;14.00;73.10;;;;;;5052286;28;20195;-89
2023/01/01 06:29:01;;;;;;;3.97;3.03;;;14.10;73.00;;;;;;5052277;28;20205;-89
2023/01/01 06:31:28;;;;;;;3.00;2.77;;;14.00;73.10;;;;;;5048530;28;20697;-90
2023/01/01 06:33:53;;;;;;;4.33;3.20;;;14.00;73.30;;;;;;5054958;28;20553;-89
2023/01/01 06:36:21;;;;;;;4.20;2.90;;;14.00;72.50;;;;;;5050890;28;20194;-88
2023/01/01 06:38:50;;;;;;;4.37;3.23;;;14.10;71.70;;;;;;5051597;28;20241;-89
2023/01/01 06:41:21;;;;;;;4.27;3.00;;;14.10;71.70;;;;;;5049814;28;20201;-90
2023/01/01 06:43:47;;;;;;;2.80;2.60;;;14.10;72.30;;;;;;5047304;28;20196;-90
2023/01/01 06:46:22;;;;;;;5.17;3.10;;;14.00;72.50;;;;;;5045827;28;20188;-88
2023/01/01 06:48:49;;;;;;;5.53;3.20;;;14.00;73.00;;;;;;5053663;28;20195;-89
2023/01/01 06:51:18;;;;;;;4.33;3.10;;;13.90;73.20;;;;;;5048431;28;20223;-90
2023/01/01 06:53:44;;;;;;;4.63;3.40;;;13.80;73.40;;;;;;5051447;28;20189;-87
2023/01/01 06:56:10;;;;;;;3.57;3.07;;;13.90;73.60;;;;;;5036395;28;20298;-89
2023/01/01 06:58:36;;;;;;;4.93;3.17;;;13.80;74.10;;;;;;5048681;28;20600;-89
2023/01/01 07:01:08;;;;;;;4.50;3.73;;;13.70;74.50;;;;;;5053948;28;20297;-89
2023/01/01 07:03:34;;;;;;;4.03;3.40;;;13.70;75.00;;;;;;5050800;28;20191;-91
2023/01/01 07:06:00;;;;;;;4.23;3.27;;;13.70;75.00;;;;;;5050602;28;20194;-90
2023/01/01 07:08:26;;;;;;;3.60;3.20;;;13.70;75.00;;;;;;5048015;28;20194;-90
2023/01/01 07:10:51;;;;;;;3.33;3.03;;;13.70;74.90;;;;;;5048007;28;20223;-89
2023/01/01 07:13:17;;;;;;;4.87;3.10;;;13.70;75.30;;;;;;5048794;28;20338;-89
2023/01/01 07:15:43;;;;;;;4.03;3.40;;;13.60;75.40;;;;;;5051828;28;20183;-89
2023/01/01 07:18:09;;;;;;;4.30;3.10;;;13.60;76.00;;;;;;5046570;28;20212;-89
2023/01/01 07:20:34;;;;;;;5.00;3.13;;;13.60;75.70;;;;;;5053896;28;20205;-90
2023/01/01 07:23:03;;;;;;;4.50;3.40;;;13.60;76.10;;;;;;5046772;28;20289;-89
2023/01/01 07:25:29;;;;;;;4.40;3.03;;;13.50;76.00;;;;;;5051914;28;20245;-88
2023/01/01 07:27:54;;;;;;;4.17;3.30;;;13.60;76.00;;;;;;5064393;28;20264;-91
2023/01/01 07:30:20;;;;;;;4.23;3.53;;;13.50;76.10;;;;;;5072184;28;20274;-91
2023/01/01 07:32:46;;;;;;;3.73;3.37;;;13.50;76.30;;;;;;5064309;28;20235;-92
2023/01/01 07:35:11;;;;;;;4.27;3.60;;;13.50;76.70;;;;;;5062935;28;20168;-90
2023/01/01 07:37:37;;;;;;;3.67;3.27;;;13.50;76.00;;;;;;5034846;28;20184;-91
2023/01/01 07:40:03;;;;;;;3.77;3.13;;;13.60;75.70;;;;;;5048266;28;20209;-90
2023/01/01 07:42:29;;;;;;;3.83;3.53;;;13.50;76.00;;;;;;5047814;28;20418;-90
2023/01/01 07:44:54;;;;;;;4.07;3.73;;;13.50;76.40;;;;;;5049070;28;20310;-90
2023/01/01 07:47:23;;;;;;;4.93;3.90;;;13.40;77.50;;;;;;5046550;28;20197;-90
2023/01/01 07:49:50;;;;;;;6.40;3.93;;;13.30;77.70;;;;;;5053397;28;20196;-90
2023/01/01 07:52:16;;;;;;;4.47;3.53;;;13.30;77.90;;;;;;5052246;28;20255;-91
2023/01/01 07:54:42;;;;;;;5.03;3.67;;;13.20;78.50;;;;;;5045441;28;20222;-90
2023/01/01 07:57:08;;;;;;;4.40;4.00;;;13.20;79.00;;;;;;5046894;28;20237;-89
2023/01/01 07:59:34;;;;;;;4.60;3.90;;;13.20;78.00;;;;;;5046628;28;20245;-90
2023/01/01 08:01:59;;;;;;;4.53;4.13;;;13.20;78.20;;;;;;5049115;28;20365;-87
2023/01/01 08:04:25;;;;;;;4.50;3.83;;;13.10;79.10;;;;;;5045106;28;20193;-89
2023/01/01 08:06:52;;;;;;;5.40;4.00;;;13.00;80.90;;;;;;5048213;28;20219;-90
2023/01/01 08:09:18;;;;;;;4.60;4.20;;;13.00;80.40;;;;;;5055478;28;20203;-88
2023/01/01 08:11:44;;;;;;;6.10;5.03;;;12.90;81.40;;;;;;5044577;28;20310;-89
2023/01/01 08:14:10;;;;;;;4.93;4.47;;;13.00;81.10;;;;;;5047347;28;20188;-90
2023/01/01 08:16:36;;;;;;;4.47;4.03;;;12.90;81.70;;;;;;5047830;28;20204;-90
2023/01/01 08:19:01;;;;;;;5.60;4.80;;;12.90;82.20;;;;;;5044096;28;20220;-88
2023/01/01 08:21:27;;;;;;;5.50;4.40;;;12.90;84.20;;;;;;5053146;28;20550;-90
2023/01/01 08:23:53;;;;;;;4.93;4.40;;;12.80;83.30;;;;;;5050695;28;20192;-90
2023/01/01 08:26:30;;;;;;;5.13;4.63;;;12.80;84.10;;;;;;5065686;28;20237;-92
2023/01/01 08:28:57;;;;;;;5.50;4.40;;;12.70;85.00;;;;;;5069020;28;20172;-93
2023/01/01 08:31:23;;;;;;;4.83;4.33;;;12.80;84.70;;;;;;5065413;28;20279;-91
2023/01/01 08:33:49;;;;;;;6.87;5.03;;;12.80;86.00;;;;;;5053639;28;20186;-89
2023/01/01 08:36:15;;;;;;;4.63;4.07;;;12.80;84.50;;;;;;5059156;28;20269;-90
2023/01/01 08:38:41;;;;;;;5.90;4.90;;;12.80;85.90;;;;;;5041495;28;20216;-88
2023/01/01 08:41:07;;;;;;;5.77;4.67;;;12.90;84.70;;;;;;5043540;28;20293;-91
2023/01/01 08:43:33;;;;;;;5.07;4.20;;;13.10;83.00;;;;;;5053583;28;20188;-90
2023/01/01 08:45:59;;;;;;;5.30;4.67;;;13.00;84.20;;;;;;5049360;28;20195;-90
2023/01/01 08:48:24;;;;;;;6.73;4.67;;;12.90;84.80;;;;;;5055570;28;20659;-90
2023/01/01 08:50:54;;;;;;;5.50;4.63;;;12.80;85.30;;;;;;5043538;28;20720;-91
2023/01/01 08:53:20;;;;;;;8.00;5.00;;;12.80;86.00;;;;;;5052188;28;20192;-90
2023/01/01 08:56:07;;;;;;;6.03;5.03;;;12.80;85.90;;;;;;5050035;28;20192;-89
2023/01/01 08:58:35;;;;;;;5.47;4.70;;;12.90;85.40;;;;;;5045608;28;20237;-89
2023/01/01 09:01:05;;;;;;;6.57;4.70;;;13.10;83.80;;;;;;5048625;28;20225;-90
2023/01/01 09:03:30;;;;;;;6.60;4.90;;;13.10;83.10;;;;;;5068729;28;20188;-89
2023/01/01 09:05:56;;;;;;;7.23;4.63;;;13.20;83.50;;;;;;5049922;28;20234;-90
2023/01/01 09:08:22;;;;;;;6.20;4.27;;;13.20;82.80;;;;;;5053920;28;20656;-89
2023/01/01 09:10:49;;;;;;;4.47;4.07;;;13.30;82.30;;;;;;5060951;28;20195;-89
2023/01/01 09:13:17;;;;;;;5.27;4.60;;;13.30;82.60;;;;;;5054560;28;20199;-89
2023/01/01 09:15:42;;;;;;;6.07;4.70;;;13.30;82.30;;;;;;5055591;28;20192;-91
2023/01/01 09:18:09;;;;;;;5.83;4.70;;;13.40;81.70;;;;;;5047487;28;20559;-89
2023/01/01 09:20:35;;;;;;;5.03;4.53;;;13.40;81.90;;;;;;5057546;28;20206;-90
2023/01/01 09:23:00;;;;;;;7.00;4.93;;;13.60;81.50;;;;;;5052710;28;20192;-90
2023/01/01 09:25:26;;;;;;;6.07;4.63;;;13.60;81.70;;;;;;5054142;28;20279;-91
2023/01/01 09:28:03;;;;;;;4.53;4.13;;;13.60;81.40;;;;;;5052444;28;20191;-89
2023/01/01 09:30:29;;;;;;;5.63;4.30;;;13.70;81.40;;;;;;5053322;28;20214;-90
2023/01/01 09:32:54;;;;;;;4.50;4.10;;;13.90;80.70;;;;;;5050034;28;20224;-89
2023/01/01 09:35:20;;;;;;;5.40;4.20;;;13.90;81.20;;;;;;5053221;28;20192;-90
2023/01/01 09:37:46;;;;;;;5.43;4.37;;;13.90;80.70;;;;;;5049973;28;20189;-90
2023/01/01 09:40:31;;;;;;;5.40;4.03;;;14.10;79.50;;;;;;5042188;28;20210;-88
2023/01/01 09:43:10;;;;;;;6.80;4.20;;;14.30;76.40;;;;;;5045823;28;20181;-89
2023/01/01 09:46:05;;;;;;;7.20;3.83;;;14.40;76.20;;;;;;5054882;28;20219;-89
2023/01/01 09:48:31;;;;;;;6.77;4.03;;;14.50;76.00;;;;;;5045354;28;20620;-90
2023/01/01 09:50:59;;;;;;;6.53;3.80;;;14.60;74.10;;;;;;5057643;28;20232;-90
2023/01/01 09:54:11;;;;;;;6.67;3.70;;;14.50;75.60;;;;;;5053144;28;20223;-88
2023/01/01 09:56:42;;;;;;;4.73;3.50;;;14.60;74.60;;;;;;5005537;28;20315;-88
2023/01/01 09:59:09;;;;;;;4.77;3.53;;;14.70;74.50;;;;;;5054342;28;20292;-88
2023/01/01 10:02:02;;;;;;;5.90;4.00;;;14.90;72.80;;;;;;5044962;28;20740;-87
2023/01/01 10:04:30;;;;;;;7.43;3.63;;;15.10;72.20;;;;;;5051418;28;20603;-89
2023/01/01 10:07:30;;;;;;;6.23;3.73;;;15.30;70.10;;;;;;5046578;28;20180;-89
2023/01/01 10:10:05;;;;;;;5.10;4.00;;;15.40;69.20;;;;;;5050972;28;20233;-87
2023/01/01 10:13:00;;;;;;;4.80;3.60;;;15.30;70.70;;;;;;5049311;28;20192;-89
2023/01/01 10:15:31;;;;;;;3.97;3.20;;;15.30;69.80;;;;;;5017479;28;20264;-87
2023/01/01 10:18:02;;;;;;;4.23;3.53;;;15.20;70.20;;;;;;5046206;28;20302;-88
2023/01/01 10:20:41;;;;;;;3.80;3.40;;;15.10;69.40;;;;;;5049977;28;20336;-87
2023/01/01 10:23:41;;;;;;;5.50;3.63;;;15.20;69.30;;;;;;5052017;28;20223;-89
2023/01/01 10:26:12;;;;;;;5.87;3.50;;;15.30;69.50;;;;;;5021203;28;20221;-89
2023/01/01 10:28:43;;;;;;;4.97;3.63;;;15.40;68.30;;;;;;5051188;28;20196;-91
2023/01/01 10:31:28;;;;;;;4.57;3.87;;;15.50;68.10;;;;;;5051342;28;20204;-90
2023/01/01 10:33:54;;;;;;;4.63;3.57;;;15.70;67.30;;;;;;5052360;28;20184;-90
2023/01/01 10:36:19;;;;;;;5.10;3.83;;;15.70;68.10;;;;;;5054235;28;20256;-89
2023/01/01 10:38:47;;;;;;;5.23;3.57;;;15.70;67.00;;;;;;5050046;28;20205;-90
2023/01/01 10:41:13;;;;;;;4.50;3.53;;;15.90;66.20;;;;;;5052213;28;20209;-88
2023/01/01 10:43:39;;;;;;;5.40;3.40;;;16.10;65.30;;;;;;5054243;28;20511;-89
2023/01/01 10:46:05;;;;;;;8.90;3.63;;;16.10;64.30;;;;;;5052487;28;20229;-90
2023/01/01 10:48:32;;;;;;;4.97;3.10;;;16.40;63.40;;;;;;5049136;28;20192;-90
2023/01/01 10:51:05;;;;;;;5.60;3.97;;;16.30;62.20;;;;;;5046701;28;20203;-90
2023/01/01 10:53:33;;;;;;;5.17;3.57;;;16.30;62.30;;;;;;5051076;28;20213;-87
2023/01/01 10:56:05;;;;;;;7.17;3.30;;;16.30;61.80;;;;;;5047149;28;20558;-89
2023/01/01 10:58:38;;;;;;;5.83;3.30;;;16.30;62.20;;;;;;5039126;28;20228;-88
2023/01/01 11:01:07;;;;;;;4.67;3.20;;;16.30;61.50;;;;;;5050845;28;20202;-89
2023/01/01 11:03:33;;;;;;;4.83;3.40;;;16.30;61.20;;;;;;5048525;28;20192;-88
2023/01/01 11:06:18;;;;;;;5.37;3.40;;;16.20;60.60;;;;;;5048992;28;20180;-92
2023/01/01 11:08:56;;;;;;;5.33;3.40;;;16.20;61.10;;;;;;5049639;28;20191;-89
2023/01/01 11:11:27;;;;;;;7.67;5.03;;;16.20;61.30;;;;;;5053597;28;20207;-90
2023/01/01 11:13:55;;;;;;;5.90;3.47;;;16.20;61.80;;;;;;5058292;28;20199;-89
2023/01/01 11:16:21;;;;;;;5.97;3.33;;;16.10;62.00;;;;;;5053965;28;20378;-90
2023/01/01 11:18:49;;;;;;;5.77;3.50;;;16.40;61.00;;;;;;5053472;28;20295;-90
2023/01/01 11:21:22;;;;;;;5.60;3.70;;;16.30;62.30;;;;;;5055223;28;20683;-90
2023/01/01 11:24:06;;;;;;;6.80;3.60;;;16.60;60.20;;;;;;5049967;28;20180;-89
2023/01/01 11:26:32;;;;;;;6.80;3.77;;;17.00;58.40;;;;;;5053203;28;20194;-91
2023/01/01 11:29:01;;;;;;;6.70;3.53;;;17.20;57.20;;;;;;5052094;28;20195;-91
2023/01/01 11:31:34;;;;;;;6.80;4.17;;;17.20;57.90;;;;;;5047881;28;20226;-91
2023/01/01 11:34:02;;;;;;;8.47;3.70;;;17.40;56.80;;;;;;5057815;28;20193;-89
2023/01/01 11:36:33;;;;;;;4.85;3.60;;;17.30;57.10;;;;;;5052548;28;20188;-90
2023/01/01 11:39:25;;;;;;;7.55;3.88;;;17.60;56.50;;;;;;5050537;28;20211;-89
2023/01/01 11:41:53;;;;;;;8.05;3.75;;;17.70;55.20;;;;;;5066857;28;20191;-90
2023/01/01 11:44:43;;;;;;;4.90;3.50;;;17.90;55.40;;;;;;5067549;28;20238;-91
2023/01/01 11:47:32;;;;;;;7.40;3.25;;;17.80;54.90;;;;;;5075515;28;20169;-92
2023/01/01 11:50:18;;;;;;;5.35;3.40;;;17.70;54.50;;;;;;5043720;28;20208;-90
2023/01/01 11:52:46;;;;;;;4.18;3.78;;;17.70;54.60;;;;;;5041688;28;20208;-91
2023/01/01 11:55:14;;;;;;;7.75;3.90;;;17.80;53.00;;;;;;5055380;28;20195;-89
2023/01/01 11:57:50;;;;;;;5.63;3.65;;;18.00;51.20;;;;;;5054140;28;20198;-90
2023/01/01 12:00:16;;;;;;;9.43;3.67;;;18.00;51.40;;;;;;5061850;28;20225;-90
2023/01/01 12:02:58;;;;;;;8.82;3.72;;;18.10;52.10;;;;;;5061130;28;20188;-90
2023/01/01 12:05:43;;;;;;;5.93;3.25;;;18.00;51.90;;;;;;5053845;28;20193;-90
2023/01/01 12:08:15;;;;;;;6.28;3.20;;;18.20;52.10;;;;;;5056641;28;20190;-90
2023/01/01 12:10:49;;;;;;;9.63;3.80;;;18.40;51.40;;;;;;5054007;28;20200;-90
2023/01/01 12:13:19;;;;;;;4.03;3.10;;;18.50;50.90;;;;;;5050864;28;20215;-91
2023/01/01 12:15:57;;;;;;;4.53;3.97;;;18.40;51.70;;;;;;5057563;28;20204;-90
2023/01/01 12:18:46;;;;;;;9.05;3.65;;;18.50;50.80;;;;;;5061477;28;20693;-90
2023/01/01 12:21:23;;;;;;;5.60;3.63;;;18.70;49.30;;;;;;5045003;28;20206;-91
2023/01/01 12:23:49;;;;;;;6.30;3.20;;;18.90;49.90;;;;;;5057646;28;20171;-91
2023/01/01 12:26:50;;;;;;;5.32;3.05;;;18.70;49.70;;;;;;5052219;28;20184;-90
2023/01/01 12:29:48;;;;;;;6.40;3.15;;;18.40;49.60;;;;;;5056850;28;20187;-89
2023/01/01 12:32:49;;;;;;;5.45;3.70;;;18.50;48.80;;;;;;5046033;28;20211;-91
2023/01/01 12:35:36;;;;;;;5.57;3.22;;;18.10;51.10;;;;;;5035456;28;20210;-88
2023/01/01 12:38:53;;;;;;;7.05;3.67;;;17.80;52.40;;;;;;5050711;28;20191;-90
2023/01/01 12:41:47;;;;;;;4.85;3.03;;;17.50;53.20;;;;;;5000901;28;20210;-89
2023/01/01 12:44:37;;;;;;;4.90;3.10;;;17.50;53.90;;;;;;5052212;28;20248;-91
2023/01/01 12:47:22;;;;;;;6.95;3.30;;;17.40;54.00;;;;;;5056697;28;20203;-89
2023/01/01 12:50:07;;;;;;;3.90;3.50;;;17.30;54.30;;;;;;5052467;28;20456;-89
2023/01/01 12:52:48;;;;;;;4.72;3.53;;;17.30;53.20;;;;;;5055039;28;20206;-90
2023/01/01 12:55:34;;;;;;;6.32;3.42;;;17.40;54.30;;;;;;5054372;28;20176;-89
2023/01/01 12:58:10;;;;;;;8.88;3.47;;;17.30;53.80;;;;;;5053825;28;20211;-90
2023/01/01 13:00:44;;;;;;;7.90;3.75;;;17.30;54.50;;;;;;5044297;28;20243;-91
2023/01/01 13:03:31;;;;;;;9.07;3.53;;;17.40;55.30;;;;;;5046691;28;20197;-91
2023/01/01 13:05:59;;;;;;;9.23;3.50;;;17.30;55.90;;;;;;5053584;28;20184;-91
2023/01/01 13:08:24;;;;;;;5.43;3.55;;;17.20;55.50;;;;;;5061462;28;20247;-90
2023/01/01 13:10:56;;;;;;;4.60;3.78;;;17.30;53.30;;;;;;5054373;28;20874;-89
2023/01/01 13:13:22;;;;;;;8.75;4.20;;;17.40;53.70;;;;;;5058858;28;20253;-90